createdAt,value
2022-10-11T00:01:49.885Z,14.95
2022-10-11T00:04:20.906Z,15.05
2022-10-11T00:06:51.560Z,15.17
2022-10-11T00:09:22.592Z,15.37
2022-10-11T00:11:55.805Z,14.93
2022-10-11T00:14:25.011Z,13.62
2022-10-11T00:16:55.530Z,12.55
2022-10-11T00:19:25.986Z,12.67
2022-10-11T00:21:56.702Z,13.47
2022-10-11T00:24:27.327Z,14.05
2022-10-11T00:26:57.883Z,14.41
2022-10-11T00:29:29.104Z,14.76
2022-10-11T00:32:00.094Z,14.95
2022-10-11T00:34:31.202Z,15.10
2022-10-11T00:37:01.895Z,15.05
2022-10-11T00:39:32.952Z,14.04
2022-10-11T00:42:04.030Z,12.98
2022-10-11T00:44:34.632Z,12.51
2022-10-11T00:47:07.409Z,13.41
2022-10-11T00:49:39.996Z,14.37
2022-10-11T00:52:15.540Z,14.64
2022-10-11T00:54:46.986Z,15.08
2022-10-11T00:57:19.711Z,15.25
2022-10-11T00:59:51.720Z,15.22
2022-10-11T01:02:23.461Z,13.85
2022-10-11T01:05:11.418Z,13.63
2022-10-11T01:07:46.040Z,14.28
2022-10-11T01:10:16.753Z,14.74
2022-10-11T01:12:54.034Z,15.03
2022-10-11T01:15:26.540Z,15.08
2022-10-11T01:18:00.468Z,14.94
2022-10-11T01:20:46.871Z,14.91
2022-10-11T01:23:34.881Z,15.24
2022-10-11T01:26:24.855Z,14.66
2022-10-11T01:29:02.799Z,13.12
2022-10-11T01:31:38.225Z,13.32
2022-10-11T01:34:12.952Z,14.17
2022-10-11T01:36:46.636Z,14.69
2022-10-11T01:39:19.522Z,14.90
2022-10-11T01:41:51.924Z,15.01
2022-10-11T01:44:24.259Z,13.84
2022-10-11T01:46:55.170Z,13.32
2022-10-11T01:49:25.613Z,13.72
2022-10-11T01:51:57.569Z,14.14
2022-10-11T01:54:56.704Z,14.23
2022-10-11T01:57:43.276Z,14.85
2022-10-11T02:00:16.851Z,14.41
2022-10-11T02:02:54.408Z,13.11
2022-10-11T02:05:28.808Z,13.49
2022-10-11T02:08:03.432Z,13.51
2022-10-11T02:10:37.220Z,13.65
2022-10-11T02:13:10.763Z,14.03
2022-10-11T02:15:42.063Z,14.64
2022-10-11T02:18:15.185Z,13.40
2022-10-11T02:20:47.109Z,12.61
2022-10-11T02:23:20.537Z,13.34
2022-10-11T02:25:51.747Z,14.57
2022-10-11T02:28:24.450Z,13.99
2022-10-11T02:30:55.980Z,12.71
2022-10-11T02:33:29.664Z,12.92
2022-10-11T02:36:03.259Z,13.46
2022-10-11T02:38:37.075Z,13.64
2022-10-11T02:41:11.938Z,13.89
2022-10-11T02:43:45.115Z,14.15
2022-10-11T02:46:17.761Z,14.37
2022-10-11T02:48:49.897Z,14.61
2022-10-11T02:51:21.221Z,14.81
2022-10-11T02:53:52.479Z,14.40
2022-10-11T02:56:23.059Z,13.05
2022-10-11T02:58:53.805Z,13.34
2022-10-11T03:01:24.637Z,14.11
2022-10-11T03:03:56.450Z,14.97
2022-10-11T03:06:27.431Z,13.49
2022-10-11T03:08:58.787Z,13.03
2022-10-11T03:11:29.667Z,13.57
2022-10-11T03:14:01.381Z,13.91
2022-10-11T03:16:32.316Z,13.98
2022-10-11T03:19:03.882Z,14.27
2022-10-11T03:21:34.745Z,14.43
2022-10-11T03:24:06.670Z,14.56
2022-10-11T03:26:37.665Z,14.81
2022-10-11T03:29:09.207Z,14.64
2022-10-11T03:31:40.530Z,13.34
2022-10-11T03:34:12.210Z,13.29
2022-10-11T03:36:43.516Z,13.74
2022-10-11T03:39:15.266Z,14.28
2022-10-11T03:41:46.543Z,14.26
2022-10-11T03:44:18.026Z,14.82
2022-10-11T03:46:49.516Z,14.42
2022-10-11T03:49:21.453Z,13.16
2022-10-11T03:51:52.527Z,13.17
2022-10-11T03:54:23.961Z,13.93
2022-10-11T03:56:54.900Z,14.34
2022-10-11T03:59:26.076Z,14.52
2022-10-11T04:01:57.194Z,14.85
2022-10-11T04:04:28.298Z,14.86
2022-10-11T04:06:59.505Z,14.89
2022-10-11T04:09:30.972Z,15.00
2022-10-11T04:12:02.613Z,15.22
2022-10-11T04:14:34.271Z,14.29
2022-10-11T04:17:05.419Z,13.34
2022-10-11T04:19:37.664Z,14.06
2022-10-11T04:22:08.378Z,14.45
2022-10-11T04:24:39.987Z,14.82
2022-10-11T04:27:11.592Z,15.15
2022-10-11T04:29:42.572Z,15.24
2022-10-11T04:32:13.563Z,15.36
2022-10-11T04:34:45.449Z,15.37
2022-10-11T04:37:16.799Z,15.46
2022-10-11T04:39:49.262Z,15.62
2022-10-11T04:42:20.548Z,15.52
2022-10-11T04:44:51.661Z,14.49
2022-10-11T04:47:22.269Z,13.42
2022-10-11T04:49:54.003Z,12.95
2022-10-11T04:52:26.015Z,13.84
2022-10-11T04:54:57.837Z,14.64
2022-10-11T04:57:29.003Z,15.06
2022-10-11T05:00:00.638Z,15.36
2022-10-11T05:02:32.233Z,15.80
2022-10-11T05:05:04.940Z,14.77
2022-10-11T05:07:38.981Z,13.96
2022-10-11T05:10:11.510Z,14.34
2022-10-11T05:12:42.720Z,14.85
2022-10-11T05:15:14.064Z,15.25
2022-10-11T05:17:45.130Z,15.55
2022-10-11T05:20:16.611Z,15.79
2022-10-11T05:22:48.170Z,16.00
2022-10-11T05:25:19.540Z,15.89
2022-10-11T05:27:50.498Z,14.77
2022-10-11T05:30:22.164Z,14.05
2022-10-11T05:32:53.031Z,14.67
2022-10-11T05:35:24.845Z,15.32
2022-10-11T05:37:56.433Z,15.67
2022-10-11T05:40:28.284Z,16.04
2022-10-11T05:42:59.488Z,15.83
2022-10-11T05:45:30.634Z,14.64
2022-10-11T05:48:03.651Z,14.30
2022-10-11T05:50:35.204Z,14.88
2022-10-11T05:53:06.611Z,15.50
2022-10-11T05:55:39.416Z,16.04
2022-10-11T05:58:12.235Z,16.19
2022-10-11T06:00:44.069Z,14.58
2022-10-11T06:03:15.182Z,14.05
2022-10-11T06:05:46.015Z,14.91
2022-10-11T06:08:17.580Z,15.43
2022-10-11T06:10:48.445Z,15.72
2022-10-11T06:13:19.450Z,16.07
2022-10-11T06:15:50.977Z,16.62
2022-10-11T06:18:22.558Z,15.52
2022-10-11T06:20:53.999Z,14.50
2022-10-11T06:23:24.848Z,14.99
2022-10-11T06:25:59.043Z,15.51
2022-10-11T06:28:30.641Z,16.01
2022-10-11T06:31:02.880Z,16.33
2022-10-11T06:33:34.638Z,16.61
2022-10-11T06:36:08.277Z,16.89
2022-10-11T06:38:44.741Z,16.76
2022-10-11T06:41:18.407Z,15.70
2022-10-11T06:43:50.986Z,14.83
2022-10-11T06:46:22.942Z,14.59
2022-10-11T06:48:54.674Z,15.58
2022-10-11T06:51:25.833Z,16.51
2022-10-11T06:53:58.644Z,17.09
2022-10-11T06:56:29.858Z,16.27
2022-10-11T06:59:01.000Z,15.31
2022-10-11T07:01:33.264Z,15.74
2022-10-11T07:04:04.431Z,16.61
2022-10-11T07:06:37.197Z,17.15
2022-10-11T07:09:08.755Z,16.87
2022-10-11T07:11:39.296Z,15.82
2022-10-11T07:14:10.839Z,16.09
2022-10-11T07:16:41.773Z,17.46
2022-10-11T07:19:13.010Z,16.74
2022-10-11T07:21:43.491Z,15.62
2022-10-11T07:24:14.270Z,16.45
2022-10-11T07:26:44.931Z,17.20
2022-10-11T07:29:15.947Z,16.34
2022-10-11T07:31:46.397Z,15.50
2022-10-11T07:34:18.228Z,16.69
2022-10-11T07:36:48.666Z,16.83
2022-10-11T07:39:19.376Z,15.54
2022-10-11T07:41:50.123Z,15.79
2022-10-11T07:44:20.917Z,16.68
2022-10-11T07:46:51.534Z,17.48
2022-10-11T07:49:22.421Z,17.39
2022-10-11T07:51:52.953Z,15.95
2022-10-11T07:54:23.622Z,16.29
2022-10-11T07:56:54.160Z,17.21
2022-10-11T07:59:24.926Z,17.73
2022-10-11T08:01:55.826Z,16.25
2022-10-11T08:04:27.568Z,15.87
2022-10-11T08:06:58.270Z,16.87
2022-10-11T08:09:29.803Z,17.17
2022-10-11T08:12:00.661Z,16.03
2022-10-11T08:14:32.030Z,16.58
2022-10-11T08:17:03.489Z,17.32
2022-10-11T08:19:34.884Z,16.39
2022-10-11T08:22:05.717Z,16.06
2022-10-11T08:24:38.453Z,16.96
2022-10-11T08:27:09.363Z,17.55
2022-10-11T08:29:40.107Z,16.29
2022-10-11T08:32:12.533Z,16.18
2022-10-11T08:34:43.399Z,17.44
2022-10-11T08:37:14.054Z,17.21
2022-10-11T08:39:44.642Z,16.05
2022-10-11T08:42:17.115Z,16.64
2022-10-11T08:45:10.082Z,17.56
2022-10-11T08:47:42.236Z,16.41
2022-10-11T08:50:17.596Z,15.89
2022-10-11T08:52:49.584Z,17.38
2022-10-11T08:55:22.442Z,16.63
2022-10-11T08:57:55.564Z,16.10
2022-10-11T09:00:29.949Z,17.24
2022-10-11T09:03:08.645Z,16.79
2022-10-11T09:05:44.949Z,15.97
2022-10-11T09:08:21.711Z,16.66
2022-10-11T09:11:05.516Z,17.76
2022-10-11T09:13:36.120Z,16.92
2022-10-11T09:16:12.043Z,16.43
2022-10-11T09:18:53.034Z,17.19
2022-10-11T09:21:29.560Z,17.72
2022-10-11T09:24:12.280Z,16.41
2022-10-11T09:26:47.935Z,16.28
2022-10-11T09:29:22.618Z,17.20
2022-10-11T09:31:54.646Z,17.88
2022-10-11T09:34:26.567Z,17.17
2022-10-11T09:37:00.173Z,16.49
2022-10-11T09:39:32.968Z,18.02
2022-10-11T09:42:05.525Z,17.54
2022-10-11T09:44:38.059Z,16.72
2022-10-11T09:47:12.960Z,17.53
2022-10-11T09:49:46.051Z,18.60
2022-10-11T09:52:14.963Z,17.67
2022-10-11T09:54:46.712Z,17.16
2022-10-11T09:57:22.230Z,18.34
2022-10-11T10:00:05.770Z,18.82
2022-10-11T10:02:43.319Z,17.50
2022-10-11T10:05:22.414Z,17.30
2022-10-11T10:08:05.011Z,18.58
2022-10-11T10:10:39.422Z,17.68
2022-10-11T10:13:20.926Z,17.55
2022-10-11T10:15:53.867Z,18.82
2022-10-11T10:18:25.482Z,17.80
2022-10-11T10:20:57.921Z,17.35
2022-10-11T10:23:30.452Z,18.59
2022-10-11T10:26:18.677Z,17.77
2022-10-11T10:29:00.343Z,17.36
2022-10-11T10:31:49.483Z,18.60
2022-10-11T10:34:27.220Z,18.99
2022-10-11T10:36:59.783Z,18.23
2022-10-11T10:39:33.978Z,17.63
2022-10-11T10:42:06.435Z,18.01
2022-10-11T10:44:36.712Z,19.31
2022-10-11T10:47:11.199Z,19.15
2022-10-11T10:49:59.830Z,18.09
2022-10-11T10:52:51.486Z,18.05
2022-10-11T10:55:25.716Z,19.48
2022-10-11T10:58:04.406Z,18.77
2022-10-11T11:00:39.942Z,17.68
2022-10-11T11:03:14.435Z,18.51
2022-10-11T11:05:48.435Z,19.47
2022-10-11T11:08:25.291Z,18.78
2022-10-11T11:11:01.282Z,18.19
2022-10-11T11:13:37.376Z,18.67
2022-10-11T11:16:13.433Z,19.59
2022-10-11T11:18:47.049Z,18.79
2022-10-11T11:21:22.678Z,18.19
2022-10-11T11:23:58.087Z,18.79
2022-10-11T11:26:31.899Z,20.70
2022-10-11T11:29:07.692Z,19.75
2022-10-11T11:31:42.436Z,18.78
2022-10-11T11:34:18.067Z,18.44
2022-10-11T11:36:49.107Z,18.89
2022-10-11T11:39:22.105Z,18.36
2022-10-11T11:41:54.877Z,17.85
2022-10-11T11:44:29.471Z,17.68
2022-10-11T11:47:01.810Z,19.02
2022-10-11T11:49:35.801Z,19.28
2022-10-11T11:52:07.556Z,18.47
2022-10-11T11:54:48.491Z,17.92
2022-10-11T11:57:23.406Z,17.56
2022-10-11T11:59:58.033Z,17.82
2022-10-11T12:02:42.402Z,18.81
2022-10-11T12:05:14.582Z,19.57
2022-10-11T12:07:52.972Z,18.83
2022-10-11T12:10:32.726Z,18.22
2022-10-11T12:13:10.880Z,17.73
2022-10-11T12:15:55.746Z,17.39
2022-10-11T12:18:26.378Z,18.07
2022-10-11T12:21:06.207Z,18.74
2022-10-11T12:23:40.631Z,18.14
2022-10-11T12:26:40.540Z,17.67
2022-10-11T12:29:28.501Z,18.06
2022-10-11T12:32:28.677Z,19.31
2022-10-11T12:35:13.233Z,18.80
2022-10-11T12:37:51.186Z,18.12
2022-10-11T12:40:41.774Z,17.73
2022-10-11T12:43:24.142Z,17.39
2022-10-11T12:45:54.678Z,17.96
2022-10-11T12:48:40.025Z,18.80
2022-10-11T12:51:23.345Z,18.28
2022-10-11T12:54:25.642Z,17.70
2022-10-11T12:57:08.401Z,17.29
2022-10-11T12:59:45.321Z,17.06
2022-10-11T13:02:27.546Z,17.72
2022-10-11T13:05:08.473Z,18.42
2022-10-11T13:07:42.984Z,17.89
2022-10-11T13:10:16.944Z,17.26
2022-10-11T13:12:49.155Z,17.49
2022-10-11T13:15:22.732Z,18.25
2022-10-11T13:17:59.371Z,17.50
2022-10-11T13:20:32.382Z,16.90
2022-10-11T13:23:03.827Z,17.24
2022-10-11T13:25:38.254Z,18.27
2022-10-11T13:28:10.310Z,18.01
2022-10-11T13:30:43.891Z,17.20
2022-10-11T13:33:20.049Z,17.05
2022-10-11T13:35:51.887Z,18.34
2022-10-11T13:38:24.408Z,17.69
2022-10-11T13:40:56.280Z,16.89
2022-10-11T13:43:28.585Z,17.83
2022-10-11T13:46:01.275Z,18.17
2022-10-11T13:48:32.854Z,17.13
2022-10-11T13:51:13.590Z,16.78
2022-10-11T13:56:45.334Z,18.54
2022-10-11T13:59:19.104Z,17.55
2022-10-11T14:01:48.480Z,16.84
2022-10-11T14:04:20.422Z,16.81
2022-10-11T14:42:59.443Z,17.50
2022-10-11T14:45:32.007Z,17.38
2022-10-11T14:48:03.451Z,17.39
2022-10-11T14:50:37.907Z,17.46
2022-10-11T14:53:09.505Z,17.47
2022-10-11T14:55:41.177Z,17.36
2022-10-11T14:58:13.013Z,17.31
2022-10-11T15:00:43.580Z,17.21
2022-10-11T15:03:14.744Z,17.14
2022-10-11T15:05:45.528Z,17.05
2022-10-11T15:08:16.534Z,17.00
2022-10-11T15:10:47.327Z,16.98
2022-10-11T15:13:18.207Z,17.29
2022-10-11T15:15:49.394Z,19.02
2022-10-11T15:18:21.563Z,18.80
2022-10-11T15:20:55.290Z,17.87
2022-10-11T15:23:25.818Z,17.13
2022-10-11T15:25:56.514Z,16.95
2022-10-11T15:28:28.804Z,18.30
2022-10-11T15:31:01.011Z,18.38
2022-10-11T15:33:32.541Z,17.60
2022-10-11T15:36:03.448Z,16.87
2022-10-11T15:38:34.627Z,17.45
2022-10-11T15:54:46.160Z,17.18
2022-10-11T15:57:17.141Z,16.75
2022-10-11T15:59:47.915Z,17.71
2022-10-11T16:02:18.779Z,17.79
2022-10-11T16:04:49.507Z,16.64
2022-10-11T16:07:20.273Z,16.96
2022-10-11T16:09:51.113Z,17.84
2022-10-11T16:12:21.964Z,17.89
2022-10-11T16:14:52.584Z,16.65
2022-10-11T16:17:23.383Z,16.50
2022-10-11T16:19:54.535Z,17.33
2022-10-11T16:22:27.464Z,18.01
2022-10-11T16:24:58.656Z,16.89
2022-10-11T16:27:29.985Z,16.52
2022-10-11T16:30:00.830Z,17.22
2022-10-11T16:32:32.964Z,17.83
2022-10-11T16:35:03.533Z,17.93
2022-10-11T16:37:35.183Z,18.02
2022-10-11T16:40:06.548Z,17.23
2022-10-11T16:42:36.950Z,16.05
2022-10-11T16:45:08.454Z,15.95
2022-10-11T16:47:39.439Z,16.86
2022-10-11T16:50:11.340Z,17.35
2022-10-11T16:52:42.174Z,17.57
2022-10-11T16:55:12.781Z,17.86
2022-10-11T16:57:43.697Z,17.83
2022-10-11T17:00:15.505Z,16.85
2022-10-11T17:02:46.411Z,15.98
2022-10-11T17:05:17.272Z,16.51
2022-10-11T17:07:47.966Z,17.17
2022-10-11T17:10:18.532Z,17.62
2022-10-11T17:12:50.302Z,17.84
2022-10-11T17:15:22.122Z,18.03
2022-10-11T17:17:56.334Z,17.90
2022-10-11T17:20:27.376Z,16.93
2022-10-11T17:22:59.098Z,15.95
2022-10-11T17:25:30.279Z,16.36
2022-10-11T17:28:01.075Z,17.01
2022-10-11T17:30:32.086Z,17.47
2022-10-11T17:33:03.434Z,17.76
2022-10-11T17:35:34.544Z,17.92
2022-10-11T17:38:06.535Z,17.87
2022-10-11T17:40:37.136Z,16.87
2022-10-11T17:43:08.002Z,15.83
2022-10-11T17:45:38.440Z,15.38
2022-10-11T17:48:09.131Z,16.15
2022-10-11T17:50:48.250Z,16.99
2022-10-11T17:53:21.757Z,17.31
2022-10-11T17:55:54.297Z,17.54
2022-10-11T17:58:27.030Z,17.74
2022-10-11T18:01:01.827Z,16.70
2022-10-11T18:03:32.692Z,15.60
2022-10-11T18:06:05.758Z,16.02
2022-10-11T18:08:39.979Z,16.71
2022-10-11T18:11:16.084Z,16.95
2022-10-11T18:13:48.655Z,17.10
2022-10-11T18:16:21.812Z,17.25
2022-10-11T18:18:51.341Z,17.38
2022-10-11T18:21:21.911Z,17.42
2022-10-11T18:23:52.647Z,17.49
2022-10-11T18:26:28.016Z,17.36
2022-10-11T18:29:01.636Z,16.26
2022-10-11T18:31:33.803Z,15.22
2022-10-11T18:34:05.409Z,14.98
2022-10-11T18:36:35.783Z,15.81
2022-10-11T18:39:07.851Z,16.51
2022-10-11T18:41:39.317Z,16.94
2022-10-11T18:44:11.361Z,17.19
2022-10-11T18:46:42.464Z,17.38
2022-10-11T18:49:13.666Z,17.52
2022-10-11T18:51:44.085Z,17.20
2022-10-11T18:54:18.442Z,16.09
2022-10-11T18:56:52.422Z,15.08
2022-10-11T18:59:23.722Z,14.72
2022-10-11T19:01:54.256Z,15.54
2022-10-11T19:04:24.847Z,16.31
2022-10-11T19:06:55.513Z,16.77
2022-10-11T19:09:26.786Z,16.99
2022-10-11T19:11:58.314Z,16.97
2022-10-11T19:14:30.609Z,16.95
2022-10-11T19:17:01.516Z,17.01
2022-10-11T19:19:33.322Z,16.87
2022-10-11T19:22:04.618Z,15.69
2022-10-11T19:24:35.572Z,14.84
2022-10-11T19:27:06.800Z,15.33
2022-10-11T19:29:38.031Z,15.75
2022-10-11T19:32:08.566Z,16.09
2022-10-11T19:34:39.440Z,16.29
2022-10-11T19:37:13.420Z,16.43
2022-10-11T19:39:44.563Z,16.40
2022-10-11T19:42:15.191Z,16.46
2022-10-11T19:44:46.038Z,16.29
2022-10-11T19:47:16.568Z,16.34
2022-10-11T19:49:47.441Z,16.27
2022-10-11T19:52:17.919Z,15.13
2022-10-11T19:54:48.868Z,13.98
2022-10-11T19:57:19.692Z,13.33
2022-10-11T19:59:50.666Z,13.97
2022-10-11T20:02:21.492Z,14.65
2022-10-11T20:04:53.303Z,15.11
2022-10-11T20:07:24.472Z,15.40
2022-10-11T20:09:55.415Z,15.55
2022-10-11T20:12:29.310Z,15.65
2022-10-11T20:15:00.556Z,15.81
2022-10-11T20:17:45.222Z,15.96
2022-10-11T20:20:16.008Z,16.13
2022-10-11T20:22:46.886Z,15.45
2022-10-11T20:25:17.990Z,14.19
2022-10-11T20:27:48.719Z,13.47
2022-10-11T20:30:19.773Z,14.13
2022-10-11T20:32:50.615Z,14.78
2022-10-11T20:35:21.580Z,15.15
2022-10-11T20:37:54.465Z,15.43
2022-10-11T20:40:25.463Z,15.72
2022-10-11T20:42:56.142Z,15.41
2022-10-11T20:45:27.281Z,14.20
2022-10-11T20:47:57.904Z,13.26
2022-10-11T20:50:28.666Z,13.79
2022-10-11T20:52:59.241Z,14.48
2022-10-11T20:55:30.015Z,14.89
2022-10-11T20:58:00.644Z,15.38
2022-10-11T21:00:31.214Z,14.71
2022-10-11T21:03:01.875Z,13.61
2022-10-11T21:05:32.691Z,13.80
2022-10-11T21:08:03.869Z,14.06
2022-10-11T21:10:34.643Z,14.80
2022-10-11T21:13:05.646Z,13.39
2022-10-11T21:15:36.283Z,12.57
2022-10-11T21:18:07.037Z,13.26
2022-10-11T21:20:40.256Z,13.53
2022-10-11T21:23:09.196Z,13.52
2022-10-11T21:25:40.360Z,13.69
2022-10-11T21:28:10.612Z,14.64
2022-10-11T21:30:41.402Z,13.43
2022-10-11T21:33:11.887Z,12.07
2022-10-11T21:35:42.860Z,12.53
2022-10-11T21:38:13.511Z,13.11
2022-10-11T21:40:44.079Z,13.55
2022-10-11T21:43:14.527Z,13.84
2022-10-11T21:45:46.108Z,13.99
2022-10-11T21:48:16.557Z,14.25
2022-10-11T21:50:52.632Z,14.40
2022-10-11T21:53:23.217Z,13.61
2022-10-11T21:55:58.709Z,12.26
2022-10-11T21:58:29.697Z,11.51
2022-10-11T22:01:00.946Z,12.23
2022-10-11T22:03:32.057Z,13.01
2022-10-11T22:06:06.424Z,13.44
2022-10-11T22:08:37.999Z,13.65
2022-10-11T22:11:10.991Z,13.77
2022-10-11T22:13:42.827Z,13.87
2022-10-11T22:16:15.328Z,14.07
2022-10-11T22:18:46.952Z,14.03
2022-10-11T22:21:19.847Z,13.05
2022-10-11T22:23:52.437Z,11.96
2022-10-11T22:26:25.108Z,12.36
2022-10-11T22:28:56.466Z,12.92
2022-10-11T22:31:28.395Z,13.27
2022-10-11T22:34:00.718Z,13.61
2022-10-11T22:36:34.284Z,13.71
2022-10-11T22:39:09.250Z,13.78
2022-10-11T22:41:40.888Z,13.91
2022-10-11T22:44:12.713Z,13.79
2022-10-11T22:46:44.213Z,12.66
2022-10-11T22:49:15.816Z,11.58
2022-10-11T22:51:49.877Z,11.86
2022-10-11T22:54:22.959Z,12.72
2022-10-11T22:56:55.118Z,13.30
2022-10-11T22:59:26.970Z,13.63
2022-10-11T23:01:58.386Z,13.81
2022-10-11T23:04:29.652Z,13.68
2022-10-11T23:07:04.917Z,12.51
2022-10-11T23:09:37.775Z,11.28
2022-10-11T23:12:09.949Z,11.35
2022-10-11T23:14:42.247Z,12.29
2022-10-11T23:17:14.019Z,13.08
2022-10-11T23:22:33.353Z,11.63
2022-10-11T23:25:04.366Z,10.94
2022-10-11T23:27:35.545Z,11.63
2022-10-11T23:30:06.805Z,12.18
2022-10-11T23:32:38.982Z,12.10
2022-10-11T23:35:09.941Z,12.54
2022-10-11T23:37:41.083Z,11.44
2022-10-11T23:40:12.403Z,10.77
2022-10-11T23:42:43.576Z,11.38
2022-10-11T23:45:13.912Z,11.73
2022-10-11T23:47:44.819Z,11.95
2022-10-11T23:50:15.277Z,12.31
2022-10-11T23:52:45.943Z,12.56
2022-10-11T23:55:16.766Z,12.71
2022-10-11T23:57:47.684Z,13.00
